Time;durP1;ratioP1;P1;durP2;ratioP2;P2;SDS_P1;SDS_P2;PMS_P1;PMS_P2;Temp;Humidity;BMP_temperature;BMP_pressure;BME280_temperature;BME280_humidity;BME280_pressure;Samples;Min_cycle;Max_cycle;Signal;HPM_P1;HPM_P2
2022/07/03 00:00:32;;;;;;;3.72;2.00;;;;;;;16.75;43.38;101435.31;5092044;28;20044;-65
2022/07/03 00:02:58;;;;;;;4.43;2.45;;;;;;;16.72;43.49;101425.72;5091594;28;20058;-67
2022/07/03 00:05:25;;;;;;;3.95;2.22;;;;;;;16.65;43.12;101430.19;5093231;28;20040;-67
2022/07/03 00:07:52;;;;;;;2.53;2.00;;;;;;;16.80;43.82;101430.19;5091809;28;20508;-67
2022/07/03 00:10:18;;;;;;;3.75;2.42;;;;;;;16.75;43.76;101430.75;5091654;28;20067;-66
2022/07/03 00:12:45;;;;;;;9.60;2.42;;;;;;;16.67;43.67;101428.94;5092045;28;20072;-67
2022/07/03 00:15:12;;;;;;;3.08;2.35;;;;;;;16.64;44.04;101432.03;5092120;28;20134;-66
2022/07/03 00:17:39;;;;;;;4.13;2.10;;;;;;;16.67;44.28;101433.53;5090991;28;20075;-67
2022/07/03 00:20:06;;;;;;;4.65;2.50;;;;;;;16.62;44.06;101431.38;5092350;28;20063;-66
2022/07/03 00:22:33;;;;;;;3.10;2.20;;;;;;;16.60;44.14;101421.75;5091688;28;20102;-66
2022/07/03 00:25:07;;;;;;;4.47;2.28;;;;;;;16.57;44.40;101430.22;5091368;28;20483;-66
2022/07/03 00:27:34;;;;;;;5.88;2.70;;;;;;;16.46;44.72;101420.63;5091823;28;20064;-66
2022/07/03 00:30:03;;;;;;;4.38;2.25;;;;;;;16.61;44.74;101423.44;5091346;28;20123;-67
2022/07/03 00:32:29;;;;;;;6.22;2.30;;;;;;;16.49;44.88;101414.84;5091587;28;20070;-66
2022/07/03 00:34:57;;;;;;;4.32;2.45;;;;;;;16.45;44.56;101418.97;5092430;28;20044;-66
2022/07/03 00:37:24;;;;;;;3.42;2.60;;;;;;;16.45;44.62;101420.84;5092575;28;20411;-66
2022/07/03 00:39:51;;;;;;;4.47;2.35;;;;;;;16.35;44.84;101413.78;5091824;28;20039;-66
2022/07/03 00:42:18;;;;;;;7.68;2.75;;;;;;;16.33;45.05;101407.72;5092173;28;20126;-66
2022/07/03 00:44:53;;;;;;;5.15;2.60;;;;;;;16.30;45.26;101410.81;5091374;28;20121;-66
2022/07/03 00:47:24;;;;;;;4.22;2.70;;;;;;;16.21;45.48;101402.91;5090374;28;20077;-66
2022/07/03 00:49:54;;;;;;;4.82;2.40;;;;;;;16.22;45.36;101401.88;5092046;28;20123;-66
2022/07/03 00:52:22;;;;;;;4.57;2.55;;;;;;;16.15;45.77;101404.47;5091881;28;20122;-67
2022/07/03 00:54:54;;;;;;;5.07;2.63;;;;;;;16.10;45.85;101402.31;5091178;28;20127;-67
2022/07/03 00:57:23;;;;;;;4.00;2.25;;;;;;;16.05;45.98;101399.28;5090210;28;20059;-66
2022/07/03 00:59:51;;;;;;;3.35;2.33;;;;;;;16.03;46.05;101398.63;5090532;28;20040;-65
2022/07/03 01:02:40;;;;;;;4.63;2.65;;;;;;;15.95;46.28;101395.97;5091476;28;20072;-67
2022/07/03 01:08:51;;;;;;;3.20;2.80;;;;;;;15.84;46.78;101388.28;5091582;28;20093;-67
2022/07/03 01:11:56;;;;;;;6.57;2.80;;;;;;;15.93;46.42;101390.75;5090338;28;20079;-66
2022/07/03 01:14:43;;;;;;;7.82;2.38;;;;;;;15.80;46.74;101387.78;5091371;28;20072;-65
2022/07/03 01:17:30;;;;;;;3.22;2.33;;;;;;;15.75;46.86;101384.78;5090289;28;20071;-65
2022/07/03 01:20:03;;;;;;;4.07;2.53;;;;;;;15.72;47.06;101387.84;5090626;28;20480;-65
2022/07/03 01:22:32;;;;;;;4.80;2.70;;;;;;;15.67;47.02;101382.97;5091600;28;20050;-65
2022/07/03 01:25:17;;;;;;;6.53;3.17;;;;;;;15.74;47.25;101379.53;5091594;28;20036;-65
2022/07/03 01:28:10;;;;;;;3.72;2.42;;;;;;;15.62;47.34;101371.81;5089859;28;20067;-66
2022/07/03 01:30:45;;;;;;;5.22;2.45;;;;;;;15.57;47.29;101382.31;5094562;28;20143;-67
2022/07/03 01:33:16;;;;;;;3.63;2.47;;;;;;;15.52;47.55;101376.59;5095048;28;20146;-65
2022/07/03 01:36:01;;;;;;;5.97;2.95;;;;;;;15.56;47.71;101377.06;5094826;28;20489;-66
2022/07/03 01:38:29;;;;;;;6.60;2.83;;;;;;;15.52;47.50;101371.19;5094030;28;20472;-65
2022/07/03 01:40:57;;;;;;;6.18;2.83;;;;;;;15.48;47.67;101370.69;5093992;28;20040;-67
2022/07/03 01:43:32;;;;;;;4.90;2.80;;;;;;;15.46;47.69;101367.31;5095176;28;20454;-66
2022/07/03 01:46:01;;;;;;;5.65;3.00;;;;;;;15.43;47.77;101369.53;5094733;28;20075;-65
2022/07/03 01:48:30;;;;;;;6.10;3.17;;;;;;;15.48;47.73;101367.16;5094411;28;20377;-65
2022/07/03 01:50:57;;;;;;;6.75;3.00;;;;;;;15.45;48.04;101370.22;5092424;28;20131;-65
2022/07/03 01:53:29;;;;;;;5.72;3.33;;;;;;;15.46;47.79;101363.78;5093839;28;20396;-65
2022/07/03 01:55:57;;;;;;;;;;;;;;;15.47;47.76;101366.31;5094350;28;20433;-65
2022/07/03 01:58:23;;;;;;;4.43;2.97;;;;;;;15.41;48.08;101363.47;5094016;28;20359;-66
2022/07/03 02:01:17;;;;;;;4.45;2.95;;;;;;;15.30;48.37;101367.41;5094576;28;20098;-65
2022/07/03 02:03:55;;;;;;;3.75;2.80;;;;;;;15.34;48.52;101371.44;5094782;28;20040;-65
2022/07/03 02:06:40;;;;;;;5.05;3.15;;;;;;;15.23;48.42;101361.03;5094589;28;20048;-65
2022/07/03 02:09:10;;;;;;;5.32;3.25;;;;;;;15.39;48.00;101370.91;5094515;28;20448;-65
2022/07/03 02:11:53;;;;;;;6.85;3.30;;;;;;;15.36;48.19;101372.13;5094480;28;20044;-65
2022/07/03 02:14:23;;;;;;;8.15;2.95;;;;;;;15.38;48.44;101366.53;5094744;28;20067;-65
2022/07/03 02:17:18;;;;;;;6.40;3.07;;;;;;;15.37;48.35;101364.84;5094632;28;20048;-65
2022/07/03 02:19:57;;;;;;;9.85;3.20;;;;;;;15.34;48.36;101366.03;5087719;28;20788;-65
2022/07/03 02:22:44;;;;;;;4.93;2.80;;;;;;;15.32;48.42;101364.53;5093152;28;20067;-66
2022/07/03 02:25:20;;;;;;;5.72;2.80;;;;;;;15.31;48.58;101360.13;5093621;28;20123;-65
2022/07/03 02:27:49;;;;;;;4.45;2.95;;;;;;;15.29;48.81;101360.28;5093468;28;20143;-65
2022/07/03 02:30:16;;;;;;;4.32;2.90;;;;;;;15.25;48.74;101362.50;5094459;28;20050;-65
2022/07/03 02:32:48;;;;;;;5.25;3.25;;;;;;;15.21;48.98;101358.47;5094567;28;20134;-66
2022/07/03 02:35:25;;;;;;;;;;;;;;;15.21;48.89;101360.34;5094687;28;20476;-65
2022/07/03 02:38:09;;;;;;;9.35;3.05;;;;;;;15.17;49.17;101359.00;5093646;28;20324;-65
2022/07/03 02:41:00;;;;;;;10.60;3.42;;;;;;;15.13;49.27;101358.53;5092594;28;20059;-65
2022/07/03 02:44:02;;;;;;;5.50;3.20;;;;;;;15.14;49.49;101362.06;5093957;28;20063;-65
2022/07/03 02:46:50;;;;;;;4.82;2.97;;;;;;;15.11;49.38;101357.00;5072293;28;20495;-65
2022/07/03 02:49:54;;;;;;;4.70;3.17;;;;;;;14.98;49.50;101361.13;5093520;28;20040;-65
2022/07/03 02:52:31;;;;;;;5.28;3.70;;;;;;;14.94;49.73;101359.75;5092554;28;20075;-66
2022/07/03 02:55:20;;;;;;;5.07;3.35;;;;;;;14.89;50.03;101354.03;5092812;28;20078;-66
2022/07/03 02:57:57;;;;;;;4.72;3.53;;;;;;;14.90;50.05;101358.41;5093656;28;20079;-65
2022/07/03 03:00:24;;;;;;;4.72;3.40;;;;;;;14.91;50.09;101353.84;5093794;28;20088;-64
2022/07/03 03:02:57;;;;;;;5.15;3.67;;;;;;;14.89;50.30;101361.31;5093985;28;20052;-65
2022/07/03 03:05:28;;;;;;;10.20;4.22;;;;;;;14.86;50.22;101354.38;5094244;28;20064;-65
2022/07/03 03:08:22;;;;;;;5.47;3.35;;;;;;;14.90;50.37;101360.28;5093607;28;20549;-66
2022/07/03 03:10:50;;;;;;;6.72;3.42;;;;;;;14.91;50.24;101354.72;5092616;28;20471;-65
2022/07/03 03:13:19;;;;;;;4.53;3.47;;;;;;;14.86;50.38;101348.16;5094169;28;20076;-65
2022/07/03 03:15:51;;;;;;;5.75;3.40;;;;;;;14.95;50.27;101356.06;5075289;28;20071;-67
2022/07/03 03:18:22;;;;;;;7.88;3.70;;;;;;;14.97;50.39;101353.16;5075295;28;20068;-66
2022/07/03 03:20:51;;;;;;;7.38;3.78;;;;;;;14.98;50.41;101358.41;5093031;28;20101;-67
2022/07/03 03:23:43;;;;;;;4.70;3.72;;;;;;;14.96;50.55;101356.91;5092643;28;20135;-65
2022/07/03 03:26:12;;;;;;;5.93;3.40;;;;;;;15.05;50.43;101349.59;5092230;28;20069;-66
2022/07/03 03:28:40;;;;;;;6.10;3.50;;;;;;;15.05;50.59;101355.88;5072111;28;20052;-65
2022/07/03 03:31:09;;;;;;;4.75;3.20;;;;;;;15.08;50.59;101350.06;5072851;28;20048;-65
2022/07/03 03:33:39;;;;;;;6.20;3.70;;;;;;;15.13;50.61;101361.22;5070512;28;20079;-65
2022/07/03 03:36:09;;;;;;;7.50;3.53;;;;;;;15.14;50.47;101354.78;5071437;28;20131;-65
2022/07/03 03:38:35;;;;;;;5.18;3.72;;;;;;;15.16;50.55;101357.34;5072081;28;20118;-65
2022/07/03 03:41:03;;;;;;;7.25;3.45;;;;;;;15.14;50.70;101349.38;5071602;28;20511;-65
2022/07/03 03:43:31;;;;;;;5.13;3.33;;;;;;;15.15;50.68;101351.06;5055091;28;20480;-65
2022/07/03 03:45:58;;;;;;;4.15;3.35;;;;;;;15.21;50.49;101347.66;5068038;28;20131;-65
2022/07/03 03:48:29;;;;;;;8.27;3.53;;;;;;;15.08;51.05;101344.69;5071917;28;20055;-65
2022/07/03 03:50:56;;;;;;;6.13;3.38;;;;;;;15.13;50.78;101345.00;5071699;28;20151;-65
2022/07/03 03:53:24;;;;;;;6.30;3.60;;;;;;;15.24;50.62;101354.59;5071715;28;20419;-65
2022/07/03 03:56:08;;;;;;;4.88;3.97;;;;;;;15.17;50.86;101351.75;5071295;28;20131;-65
2022/07/03 03:58:37;;;;;;;4.97;3.50;;;;;;;15.00;51.25;101352.81;5054511;28;20534;-65
2022/07/03 04:01:05;;;;;;;5.85;3.90;;;;;;;15.04;51.16;101354.16;5072379;28;20071;-65
2022/07/03 04:03:32;;;;;;;6.03;3.58;;;;;;;14.95;51.42;101349.81;5072597;28;20048;-65
2022/07/03 04:05:59;;;;;;;9.40;4.00;;;;;;;15.16;50.90;101355.47;5071861;28;20060;-65
2022/07/03 04:08:27;;;;;;;5.88;3.83;;;;;;;15.04;51.19;101348.75;5071648;28;20474;-65
2022/07/03 04:10:54;;;;;;;4.72;3.45;;;;;;;15.20;51.01;101354.09;5071887;28;20135;-65
2022/07/03 04:13:21;;;;;;;4.60;3.55;;;;;;;15.10;51.22;101341.81;5071691;28;20079;-65
2022/07/03 04:15:49;;;;;;;5.25;3.28;;;;;;;15.16;51.31;101343.81;5071215;28;20474;-65
2022/07/03 04:18:16;;;;;;;4.35;3.35;;;;;;;15.17;50.96;101345.50;5071269;28;20044;-65
2022/07/03 04:20:43;;;;;;;4.32;3.53;;;;;;;15.04;51.34;101340.66;5065057;28;20131;-66
2022/07/03 04:23:09;;;;;;;10.90;3.47;;;;;;;15.11;51.19;101341.63;5070046;28;20048;-65
2022/07/03 04:25:36;;;;;;;9.32;4.32;;;;;;;15.04;51.29;101340.66;5071900;28;20044;-65
2022/07/03 04:28:03;;;;;;;9.38;3.83;;;;;;;15.18;51.00;101336.38;5085999;28;20064;-65
2022/07/03 04:30:47;;;;;;;9.38;4.18;;;;;;;15.09;51.38;101338.28;5089537;28;20044;-65
2022/07/03 04:33:14;;;;;;;5.13;3.95;;;;;;;15.10;51.40;101337.25;5090940;28;20136;-65
2022/07/03 04:35:40;;;;;;;5.72;3.85;;;;;;;15.05;51.37;101350.47;5091556;28;20052;-65
2022/07/03 04:38:07;;;;;;;7.95;3.75;;;;;;;15.06;51.34;101338.63;5092769;28;20060;-65
2022/07/03 04:40:33;;;;;;;8.68;3.88;;;;;;;15.14;51.36;101343.97;5091564;28;20510;-65
2022/07/03 04:43:00;;;;;;;5.32;3.92;;;;;;;15.16;51.55;101347.38;5091469;28;20113;-65
2022/07/03 04:45:27;;;;;;;7.20;4.22;;;;;;;15.09;51.64;101338.28;5091475;28;20552;-65
2022/07/03 04:47:54;;;;;;;5.75;3.90;;;;;;;15.14;51.49;101343.97;5091643;28;20048;-65
2022/07/03 04:50:20;;;;;;;11.18;4.10;;;;;;;15.15;51.72;101331.31;5090692;28;20134;-65
2022/07/03 04:52:47;;;;;;;9.32;3.42;;;;;;;15.24;51.52;101332.97;5091311;28;20050;-65
2022/07/03 04:55:13;;;;;;;10.57;3.72;;;;;;;15.20;51.49;101329.78;5092026;28;20048;-65
2022/07/03 04:57:40;;;;;;;5.50;3.75;;;;;;;15.26;51.52;101336.34;5090551;28;20078;-66
2022/07/03 05:00:07;;;;;;;7.80;4.10;;;;;;;15.19;51.80;101325.41;5092404;28;20135;-66
2022/07/03 05:02:34;;;;;;;8.18;4.95;;;;;;;15.14;51.81;101330.47;5092220;28;20464;-66
2022/07/03 05:05:01;;;;;;;13.38;3.70;;;;;;;15.30;51.55;101323.31;5090046;28;20056;-66
2022/07/03 05:07:27;;;;;;;4.95;3.67;;;;;;;15.32;51.40;101316.69;5090790;28;20060;-66
2022/07/03 05:09:54;;;;;;;6.20;3.67;;;;;;;15.17;51.70;101321.19;5091333;28;20046;-65
2022/07/03 05:12:20;;;;;;;6.68;3.97;;;;;;;15.39;51.18;101314.13;5090587;28;20051;-64
2022/07/03 05:14:47;;;;;;;12.95;3.33;;;;;;;15.43;51.23;101320.84;5087314;28;20050;-65
2022/07/03 05:17:16;;;;;;;7.35;3.42;;;;;;;15.47;51.06;101323.06;5088372;28;20122;-65
2022/07/03 05:19:42;;;;;;;5.72;3.72;;;;;;;15.64;50.88;101318.41;5089156;28;20051;-65
2022/07/03 05:22:10;;;;;;;5.85;3.92;;;;;;;15.41;51.02;101312.09;5091828;28;20050;-65
2022/07/03 05:24:36;;;;;;;3.97;3.58;;;;;;;15.69;50.34;101321.41;5091597;28;20079;-65
2022/07/03 05:27:04;;;;;;;8.27;3.67;;;;;;;15.82;50.32;101311.88;5091341;28;20525;-65
2022/07/03 05:29:30;;;;;;;5.38;3.53;;;;;;;15.71;49.96;101316.69;5089385;28;20083;-66
2022/07/03 05:32:04;;;;;;;5.18;3.22;;;;;;;15.85;49.87;101316.94;5091397;28;20124;-65
2022/07/03 05:34:30;;;;;;;5.90;3.53;;;;;;;16.00;49.26;101317.81;5090938;28;20105;-65
2022/07/03 05:36:57;;;;;;;5.07;3.60;;;;;;;16.08;49.21;101315.03;5090085;28;20062;-65
2022/07/03 05:39:32;;;;;;;5.53;2.90;;;;;;;16.21;48.80;101321.69;5088813;28;20071;-65
2022/07/03 05:41:58;;;;;;;3.90;3.08;;;;;;;16.31;48.41;101320.41;5090525;28;20105;-65
2022/07/03 05:44:25;;;;;;;8.40;3.28;;;;;;;16.19;48.49;101317.31;5090891;28;20070;-65
2022/07/03 05:46:51;;;;;;;6.55;3.38;;;;;;;16.38;48.41;101306.97;5090238;28;20079;-65
2022/07/03 05:49:18;;;;;;;5.93;2.97;;;;;;;16.35;48.24;101307.34;5091263;28;20093;-65
2022/07/03 05:51:44;;;;;;;3.92;2.95;;;;;;;16.47;48.35;101307.72;5088197;28;20468;-65
2022/07/03 05:54:11;;;;;;;4.63;2.90;;;;;;;16.49;48.41;101311.09;5090545;28;20035;-65
2022/07/03 05:56:38;;;;;;;3.97;2.72;;;;;;;16.47;48.31;101307.72;5090786;28;20071;-66
2022/07/03 05:59:04;;;;;;;7.03;2.80;;;;;;;16.64;48.13;101306.56;5091165;28;20097;-66
2022/07/03 06:01:31;;;;;;;3.55;2.65;;;;;;;16.79;47.68;101302.00;5088429;28;20064;-65
2022/07/03 06:03:58;;;;;;;3.67;2.58;;;;;;;16.83;47.51;101303.31;5075150;28;20195;-65
2022/07/03 06:06:24;;;;;;;4.63;2.85;;;;;;;16.77;47.46;101295.09;5086776;28;20088;-65
2022/07/03 06:08:51;;;;;;;5.00;3.00;;;;;;;16.81;47.38;101294.50;5087671;28;20135;-65
2022/07/03 06:11:18;;;;;;;6.07;2.90;;;;;;;17.00;46.81;101293.09;5090821;28;20075;-65
2022/07/03 06:13:44;;;;;;;7.78;2.90;;;;;;;16.99;46.73;101293.28;5090907;28;20135;-65
2022/07/03 06:16:11;;;;;;;4.78;2.65;;;;;;;17.13;46.57;101284.31;5091730;28;20474;-65
2022/07/03 06:18:37;;;;;;;6.88;3.35;;;;;;;17.31;45.95;101295.56;5094482;28;20540;-65
2022/07/03 06:21:04;;;;;;;3.30;2.42;;;;;;;17.36;45.49;101292.31;5094958;28;20071;-65
2022/07/03 06:23:30;;;;;;;9.07;2.65;;;;;;;17.52;46.38;101288.53;5095575;28;20074;-65
2022/07/03 06:26:14;;;;;;;4.82;2.45;;;;;;;17.43;45.24;101295.94;5087855;28;20048;-65
2022/07/03 06:28:41;;;;;;;5.05;2.75;;;;;;;17.55;44.15;101291.72;5080141;28;25716;-65
2022/07/03 06:31:08;;;;;;;7.28;2.33;;;;;;;17.70;45.36;101285.38;5085734;28;20433;-65
2022/07/03 06:33:35;;;;;;;4.22;2.90;;;;;;;17.83;45.22;101282.78;5074613;28;20075;-65
2022/07/03 06:36:01;;;;;;;5.13;2.67;;;;;;;17.96;43.84;101284.78;5076703;28;20098;-65
2022/07/03 06:38:28;;;;;;;7.28;2.60;;;;;;;18.03;43.96;101277.53;5074601;28;20123;-66
2022/07/03 06:40:54;;;;;;;7.90;2.72;;;;;;;18.13;43.40;101283.44;5076734;28;20072;-65
2022/07/03 06:43:21;;;;;;;4.60;2.53;;;;;;;18.12;43.73;101278.22;5088428;28;20122;-65
2022/07/03 06:45:47;;;;;;;3.78;2.50;;;;;;;18.27;43.12;101284.44;5089754;28;20071;-65
2022/07/03 06:48:14;;;;;;;3.72;2.25;;;;;;;18.34;43.27;101277.16;5093512;28;20054;-65
2022/07/03 06:50:41;;;;;;;4.45;2.17;;;;;;;18.49;42.90;101277.91;5079746;28;20112;-66
2022/07/03 06:53:07;;;;;;;5.97;2.28;;;;;;;18.59;42.65;101279.44;5086954;28;20119;-66
2022/07/03 06:55:34;;;;;;;5.45;2.25;;;;;;;18.77;41.58;101280.59;5073960;28;20127;-66
2022/07/03 06:58:00;;;;;;;7.85;1.98;;;;;;;18.82;41.50;101276.41;5078111;28;20127;-66
2022/07/03 07:00:27;;;;;;;3.20;2.28;;;;;;;19.04;41.24;101274.47;5073925;28;20068;-67
2022/07/03 07:02:53;;;;;;;2.97;1.85;;;;;;;19.30;40.58;101273.72;5085857;28;20119;-66
2022/07/03 07:05:25;;;;;;;4.30;2.10;;;;;;;19.45;40.65;101271.66;5090329;28;20051;-67
2022/07/03 07:07:52;;;;;;;2.70;2.08;;;;;;;19.65;40.06;101275.25;5083881;28;20120;-65
2022/07/03 07:10:18;;;;;;;6.03;2.28;;;;;;;19.86;39.11;101270.72;5073973;28;20047;-65
2022/07/03 07:12:45;;;;;;;2.92;1.85;;;;;;;20.07;38.63;101275.09;5074173;28;20080;-66
2022/07/03 07:15:11;;;;;;;6.47;1.88;;;;;;;19.86;38.39;101271.53;5085968;28;20064;-66
2022/07/03 07:17:38;;;;;;;5.57;2.85;;;;;;;20.39;38.08;101268.81;5077730;28;20052;-66
2022/07/03 07:20:05;;;;;;;4.53;2.00;;;;;;;20.55;37.37;101263.97;5085746;28;20059;-66
2022/07/03 07:22:31;;;;;;;4.07;2.35;;;;;;;20.94;36.98;101264.91;5084067;28;20445;-65
2022/07/03 07:24:58;;;;;;;2.58;1.90;;;;;;;21.10;36.39;101258.94;5078810;28;20498;-67
2022/07/03 07:27:24;;;;;;;4.40;1.83;;;;;;;21.44;36.07;101257.75;5090499;28;20044;-66
2022/07/03 07:29:51;;;;;;;4.35;1.92;;;;;;;21.88;34.93;101260.66;5092175;28;20071;-66
2022/07/03 07:32:18;;;;;;;6.57;2.10;;;;;;;22.04;34.90;101262.78;5080260;28;20135;-66
2022/07/03 07:34:44;;;;;;;2.17;1.80;;;;;;;21.65;34.87;101253.00;5088052;28;20040;-67
2022/07/03 07:37:11;;;;;;;4.22;2.00;;;;;;;21.87;34.63;101258.94;5072084;28;20123;-65
2022/07/03 07:39:37;;;;;;;3.58;2.50;;;;;;;22.37;34.06;101256.19;5070886;28;20047;-66
2022/07/03 07:42:04;;;;;;;2.30;1.60;;;;;;;21.74;35.29;101260.72;5092419;28;20036;-66
2022/07/03 07:44:31;;;;;;;3.33;1.85;;;;;;;22.04;34.54;101252.69;5088746;28;20131;-65
2022/07/03 07:46:57;;;;;;;5.85;1.48;;;;;;;22.25;34.37;101259.66;5077328;28;20464;-65
2022/07/03 07:49:24;;;;;;;3.50;1.70;;;;;;;22.07;34.61;101243.22;5074425;28;20155;-66
2022/07/03 07:51:51;;;;;;;2.50;2.20;;;;;;;21.93;34.57;101255.34;5076460;28;20083;-65
2022/07/03 07:54:17;;;;;;;7.90;2.17;;;;;;;21.95;35.16;101251.31;5084475;28;20477;-67
2022/07/03 07:56:44;;;;;;;4.03;1.98;;;;;;;22.23;33.59;101256.31;5077039;28;20136;-66
2022/07/03 07:59:10;;;;;;;5.05;1.73;;;;;;;22.37;33.76;101251.56;5089179;28;20090;-65
2022/07/03 08:07:08;;;;;;;2.58;2.00;;;;;;;22.71;33.78;101249.34;5090781;28;20135;-67
2022/07/03 08:09:34;;;;;;;6.28;2.13;;;;;;;22.88;33.25;101249.53;5080464;28;20044;-67
2022/07/03 08:12:01;;;;;;;6.32;2.00;;;;;;;22.71;33.48;101232.94;5092436;28;20054;-67
2022/07/03 08:14:28;;;;;;;3.15;1.80;;;;;;;22.92;32.74;101239.81;5092738;28;20048;-68
2022/07/03 08:16:54;;;;;;;2.80;1.98;;;;;;;22.51;33.77;101235.88;5092779;28;20047;-68
2022/07/03 08:19:21;;;;;;;4.47;1.95;;;;;;;22.66;33.04;101238.22;5092228;28;20054;-67
2022/07/03 08:21:47;;;;;;;5.10;2.13;;;;;;;22.56;33.15;101236.84;5091493;28;20074;-68
2022/07/03 08:24:16;;;;;;;2.85;2.13;;;;;;;23.00;32.54;101228.56;5087847;28;20070;-67
2022/07/03 08:26:42;;;;;;;7.10;4.20;;;;;;;23.14;32.46;101230.06;5092667;28;20492;-67
2022/07/03 08:29:09;;;;;;;9.50;2.28;;;;;;;23.18;31.87;101227.69;5091889;28;20070;-69
2022/07/03 08:31:36;;;;;;;3.35;1.98;;;;;;;23.39;31.70;101226.34;5076420;28;20072;-68
2022/07/03 08:34:02;;;;;;;5.60;1.90;;;;;;;23.33;31.73;101219.91;5071799;28;20400;-66
2022/07/03 08:36:29;;;;;;;11.35;1.90;;;;;;;23.29;31.15;101229.63;5071852;28;20078;-69
2022/07/03 08:38:56;;;;;;;9.93;2.47;;;;;;;23.67;31.50;101215.56;5072118;28;20048;-67
2022/07/03 08:41:24;;;;;;;4.75;2.20;;;;;;;24.16;31.23;101229.97;5071661;28;20044;-66
2022/07/03 08:43:52;;;;;;;5.82;1.60;;;;;;;24.18;30.66;101225.06;5071286;28;20372;-66
2022/07/03 08:46:19;;;;;;;3.92;2.00;;;;;;;24.47;30.35;101216.13;5085209;28;20153;-67
2022/07/03 08:48:46;;;;;;;25.13;3.38;;;;;;;23.93;31.47;101216.25;5092904;28;20048;-69
2022/07/03 08:51:14;;;;;;;5.10;2.17;;;;;;;23.46;33.00;101210.66;5092891;28;20483;-68
2022/07/03 08:53:41;;;;;;;7.10;1.83;;;;;;;23.79;31.77;101215.63;5093911;28;20052;-66
2022/07/03 08:56:08;;;;;;;4.53;1.55;;;;;;;23.56;32.38;101202.69;5093914;28;20040;-66
2022/07/03 08:58:35;;;;;;;5.40;1.80;;;;;;;24.41;30.69;101215.19;5092032;28;20531;-65
2022/07/03 09:01:02;;;;;;;3.30;1.60;;;;;;;25.03;29.06;101206.34;5092101;28;20046;-67
2022/07/03 09:03:30;;;;;;;2.88;1.73;;;;;;;25.37;28.31;101198.97;5092853;28;20465;-65
2022/07/03 09:05:58;;;;;;;6.35;1.60;;;;;;;25.69;28.62;101198.47;5091631;28;20115;-65
2022/07/03 09:08:28;;;;;;;3.58;1.60;;;;;;;26.22;26.97;101202.59;5092042;28;20043;-66
2022/07/03 09:10:54;;;;;;;10.10;1.92;;;;;;;24.82;31.24;101202.31;5076987;28;20156;-65
2022/07/03 09:13:21;;;;;;;6.05;1.70;;;;;;;24.97;28.77;101201.78;5072191;28;20055;-68
2022/07/03 09:15:47;;;;;;;5.95;2.00;;;;;;;24.87;31.50;101202.41;5072248;28;20099;-68
2022/07/03 09:18:14;;;;;;;3.25;1.45;;;;;;;25.27;29.12;101188.66;5071607;28;20116;-66
2022/07/03 09:20:41;;;;;;;7.55;1.83;;;;;;;24.14;31.04;101204.69;5072261;28;20056;-67
2022/07/03 09:23:19;;;;;;;7.03;1.50;;;;;;;24.59;29.79;101193.06;5071840;28;20094;-66
2022/07/03 09:25:57;;;;;;;9.02;1.70;;;;;;;25.02;29.19;101186.25;5073300;28;20080;-66
2022/07/03 09:28:41;;;;;;;2.55;1.40;;;;;;;25.51;28.64;101194.00;5088859;28;20066;-66
2022/07/03 09:31:08;;;;;;;2.47;1.38;;;;;;;24.91;29.89;101192.63;5086050;28;20476;-65
2022/07/03 09:33:35;;;;;;;5.25;1.50;;;;;;;25.21;28.39;101186.06;5090827;28;20040;-65
2022/07/03 09:36:01;;;;;;;2.53;1.77;;;;;;;25.08;30.52;101188.03;5090541;28;20131;-65
2022/07/03 09:38:28;;;;;;;3.47;1.67;;;;;;;25.53;28.03;101195.41;5091912;28;20120;-66
2022/07/03 09:40:57;;;;;;;3.55;1.55;;;;;;;24.69;29.29;101186.97;5091465;28;20060;-66
2022/07/03 09:43:25;;;;;;;7.47;1.60;;;;;;;24.51;29.74;101185.25;5091101;28;20139;-66
2022/07/03 09:46:00;;;;;;;2.65;1.48;;;;;;;26.05;27.65;101192.41;5091335;28;20098;-65
2022/07/03 09:48:40;;;;;;;6.18;1.85;;;;;;;25.55;28.35;101192.44;5091922;28;20468;-66
2022/07/03 09:51:27;;;;;;;6.00;1.50;;;;;;;25.82;27.78;101181.63;5092448;28;20040;-66
2022/07/03 09:53:58;;;;;;;2.75;1.50;;;;;;;25.29;28.75;101172.75;5095345;28;20044;-65
2022/07/03 09:56:36;;;;;;;2.15;1.55;;;;;;;26.93;26.00;101184.28;5095590;28;20387;-67
2022/07/03 09:59:08;;;;;;;2.05;1.30;;;;;;;24.87;29.17;101173.06;5095147;28;20044;-67
2022/07/03 10:01:39;;;;;;;2.80;1.50;;;;;;;24.25;30.82;101172.00;5089832;28;20043;-66
2022/07/03 10:04:10;;;;;;;2.60;1.58;;;;;;;25.47;28.58;101168.13;5094307;28;20052;-66
2022/07/03 10:06:56;;;;;;;3.03;1.42;;;;;;;26.64;26.84;101160.78;5094267;28;20105;-66
2022/07/03 10:09:27;;;;;;;1.67;1.20;;;;;;;26.79;26.85;101174.72;5094500;28;20139;-66
2022/07/03 10:11:55;;;;;;;2.13;1.45;;;;;;;26.54;26.90;101167.81;5094773;28;20079;-66
2022/07/03 10:14:27;;;;;;;1.60;1.40;;;;;;;25.06;29.99;101164.63;5094548;28;20161;-66
2022/07/03 10:16:55;;;;;;;5.18;4.45;;;;;;;26.24;28.25;101150.91;5093419;28;20439;-67
2022/07/03 10:19:25;;;;;;;3.40;2.38;;;;;;;26.31;27.64;101151.56;5094270;28;20169;-67
2022/07/03 10:21:53;;;;;;;3.20;1.70;;;;;;;26.28;27.94;101149.34;5094197;28;20143;-67
2022/07/03 10:24:25;;;;;;;5.95;1.88;;;;;;;26.25;26.28;101158.91;5094080;28;20067;-67
2022/07/03 10:26:53;;;;;;;3.88;1.75;;;;;;;27.24;25.08;101166.13;5094922;28;20119;-67
2022/07/03 10:29:22;;;;;;;4.47;1.52;;;;;;;25.07;28.35;101158.09;5089664;28;20410;-67
2022/07/03 10:31:55;;;;;;;9.68;1.90;;;;;;;25.63;27.74;101144.50;5094009;28;20325;-67
2022/07/03 10:34:24;;;;;;;2.25;1.30;;;;;;;26.53;26.00;101146.88;5087252;28;20176;-67
2022/07/03 10:37:02;;;;;;;1.90;1.13;;;;;;;27.47;24.88;101137.41;5092244;28;20063;-67
2022/07/03 10:39:49;;;;;;;4.65;1.60;;;;;;;26.17;26.66;101144.72;5094456;28;20119;-67
2022/07/03 10:45:13;;;;;;;7.85;1.27;;;;;;;26.40;26.42;101139.03;5093733;28;20130;-67
2022/07/03 10:47:48;;;;;;;2.63;1.55;;;;;;;26.58;26.82;101137.03;5093550;28;20494;-67
2022/07/03 10:50:24;;;;;;;5.90;1.50;;;;;;;26.28;26.58;101130.09;5093985;28;20094;-67
2022/07/03 10:52:51;;;;;;;2.53;1.20;;;;;;;26.36;26.24;101137.03;5093509;28;24492;-66
2022/07/03 10:55:19;;;;;;;4.07;1.75;;;;;;;26.61;25.89;101131.00;5094832;28;20040;-67
2022/07/03 10:58:09;;;;;;;3.50;1.60;;;;;;;26.40;26.47;101121.69;5094559;28;20440;-67
2022/07/03 11:00:53;;;;;;;2.28;1.58;;;;;;;26.55;26.20;101127.34;5078175;28;20040;-67
2022/07/03 11:03:57;;;;;;;6.93;1.60;;;;;;;25.81;26.97;101127.75;5093784;28;20044;-67
2022/07/03 11:06:42;;;;;;;3.55;1.40;;;;;;;25.70;27.88;101114.94;5093320;28;20539;-67
2022/07/03 11:09:13;;;;;;;2.28;1.40;;;;;;;25.82;27.06;101111.03;5090008;28;20468;-67
2022/07/03 11:11:56;;;;;;;4.73;1.40;;;;;;;24.85;29.12;101101.13;5092442;28;20083;-67
2022/07/03 11:14:23;;;;;;;5.15;1.77;;;;;;;25.46;27.99;101104.09;5094794;28;20048;-67
2022/07/03 11:17:16;;;;;;;2.95;1.42;;;;;;;25.44;28.07;101099.94;5093114;28;20075;-67
2022/07/03 11:19:42;;;;;;;7.40;1.30;;;;;;;25.20;28.65;101107.50;5094632;28;20068;-67
2022/07/03 11:22:19;;;;;;;6.07;1.48;;;;;;;25.17;28.62;101108.03;5093969;28;20459;-67
2022/07/03 11:24:50;;;;;;;5.32;1.67;;;;;;;25.31;29.04;101101.97;5094199;28;20074;-67
2022/07/03 11:27:19;;;;;;;3.80;1.30;;;;;;;24.24;30.33;101097.16;5094563;28;20551;-67
2022/07/03 11:29:55;;;;;;;3.90;1.70;;;;;;;25.10;28.41;101095.28;5094159;28;20078;-67
2022/07/03 11:32:49;;;;;;;3.40;1.50;;;;;;;24.64;29.97;101088.91;5094409;28;20047;-67
2022/07/03 11:35:48;;;;;;;2.10;1.40;;;;;;;25.66;27.01;101084.41;5093922;28;20044;-67
2022/07/03 11:38:35;;;;;;;4.07;1.70;;;;;;;26.17;26.27;101087.84;5094203;28;20040;-66
2022/07/03 11:41:07;;;;;;;4.15;1.52;;;;;;;24.86;29.37;101069.88;5094397;28;20044;-68
2022/07/03 11:43:34;;;;;;;5.18;1.90;;;;;;;24.99;28.59;101074.22;5092115;28;20462;-68
2022/07/03 11:46:01;;;;;;;2.17;1.52;;;;;;;24.99;28.59;101068.72;5094791;28;20071;-68
2022/07/03 11:48:28;;;;;;;5.07;1.40;;;;;;;24.66;28.69;101064.00;5094148;28;20129;-67
2022/07/03 11:51:01;;;;;;;3.85;1.58;;;;;;;24.14;30.26;101061.31;5093815;28;20040;-67
2022/07/03 11:53:30;;;;;;;2.88;1.40;;;;;;;24.06;30.78;101059.78;5091559;28;20038;-67